Time;durP1;ratioP1;P1;durP2;ratioP2;P2;SDS_P1;SDS_P2;PMS_P1;PMS_P2;Temp;Humidity;BMP_temperature;BMP_pressure;BME280_temperature;BME280_humidity;BME280_pressure;Samples;Min_cycle;Max_cycle;Signal;HPM_P1;HPM_P2
2021/12/19 00:09:09;;;;;;;1.05;0.68;;;29.40;99.90;;;;;;5093509;28;20035;-69
2021/12/19 00:11:37;;;;;;;4.65;1.08;;;29.60;99.90;;;;;;5092629;28;20020;-70
2021/12/19 00:14:05;;;;;;;0.60;0.50;;;29.50;99.90;;;;;;5093322;28;20043;-67
2021/12/19 00:16:34;;;;;;;3.17;1.00;;;29.50;99.90;;;;;;5090735;28;20026;-69
2021/12/19 00:19:01;;;;;;;3.25;1.02;;;29.50;99.90;;;;;;5093024;28;20028;-69
2021/12/19 00:21:30;;;;;;;1.00;0.60;;;29.60;99.90;;;;;;5092942;28;20016;-68
2021/12/19 00:23:58;;;;;;;0.95;0.50;;;29.70;99.90;;;;;;5092964;28;20073;-68
2021/12/19 00:26:26;;;;;;;0.75;0.45;;;29.60;99.90;;;;;;5093059;28;20085;-69
2021/12/19 00:28:54;;;;;;;1.20;0.50;;;29.50;99.90;;;;;;5092855;28;20023;-68
2021/12/19 00:31:21;;;;;;;1.55;0.90;;;29.40;99.90;;;;;;5092902;28;20055;-67
2021/12/19 00:33:49;;;;;;;1.13;0.52;;;29.30;99.90;;;;;;5092969;28;20024;-68
2021/12/19 00:36:17;;;;;;;4.25;1.50;;;29.30;99.90;;;;;;5092827;28;20024;-70
2021/12/19 00:38:44;;;;;;;9.00;2.30;;;29.30;99.90;;;;;;5092602;28;20039;-69
2021/12/19 00:41:12;;;;;;;1.83;0.75;;;29.30;99.90;;;;;;5089749;28;20039;-69
2021/12/19 00:43:53;;;;;;;3.88;0.55;;;29.50;99.90;;;;;;5091848;28;20021;-70
2021/12/19 00:46:22;;;;;;;3.05;1.42;;;29.60;99.90;;;;;;5090802;28;20127;-69
2021/12/19 00:48:54;;;;;;;6.00;1.23;;;29.60;99.90;;;;;;5089267;28;20035;-69
2021/12/19 00:51:26;;;;;;;5.97;0.68;;;29.60;99.90;;;;;;5091647;28;20035;-68
2021/12/19 00:53:55;;;;;;;4.20;0.70;;;29.70;99.90;;;;;;5089848;28;20531;-69
2021/12/19 00:56:24;;;;;;;1.20;0.50;;;29.80;99.90;;;;;;5096553;28;20028;-69
2021/12/19 00:58:52;;;;;;;1.63;0.50;;;29.90;99.90;;;;;;5096557;28;20042;-70
2021/12/19 01:01:20;;;;;;;1.98;0.63;;;30.00;99.90;;;;;;5096343;28;20061;-69
2021/12/19 01:03:48;;;;;;;1.27;0.70;;;30.00;99.90;;;;;;5094169;28;20100;-69
2021/12/19 01:06:18;;;;;;;5.55;0.80;;;30.10;99.90;;;;;;5096728;28;20012;-69
2021/12/19 01:08:47;;;;;;;1.65;0.40;;;30.20;99.90;;;;;;5093910;28;20024;-70
2021/12/19 01:11:16;;;;;;;1.70;0.30;;;30.30;99.90;;;;;;5096360;28;20016;-69
2021/12/19 01:13:44;;;;;;;3.22;0.60;;;30.40;99.90;;;;;;5095811;28;20024;-70
2021/12/19 01:16:12;;;;;;;1.67;0.50;;;30.50;99.90;;;;;;5095895;28;20016;-70
2021/12/19 01:18:39;;;;;;;2.72;0.60;;;30.70;99.90;;;;;;5095090;28;20476;-69
2021/12/19 01:21:10;;;;;;;1.33;0.50;;;30.90;99.90;;;;;;5095551;28;20020;-70
2021/12/19 01:23:38;;;;;;;0.65;0.20;;;30.90;99.90;;;;;;5095772;28;20020;-72
2021/12/19 01:26:06;;;;;;;2.20;0.65;;;30.90;99.90;;;;;;5095771;28;20524;-69
2021/12/19 01:28:34;;;;;;;4.65;0.35;;;30.80;99.90;;;;;;5095828;28;20028;-70
2021/12/19 01:31:02;;;;;;;0.30;0.20;;;30.70;99.70;;;;;;5076545;28;20019;-68
2021/12/19 01:33:30;;;;;;;0.75;0.30;;;30.70;98.60;;;;;;5094499;28;20024;-68
2021/12/19 01:35:58;;;;;;;1.08;0.30;;;30.80;98.90;;;;;;5095703;28;20384;-69
2021/12/19 01:38:30;;;;;;;1.25;0.55;;;31.00;99.50;;;;;;5095183;28;20048;-70
2021/12/19 01:40:58;;;;;;;3.22;0.35;;;31.10;96.50;;;;;;5095392;28;20016;-69
2021/12/19 01:43:26;;;;;;;1.17;0.43;;;31.70;96.90;;;;;;5095431;28;20031;-67
2021/12/19 01:45:54;;;;;;;1.15;0.47;;;31.80;95.50;;;;;;5095556;28;20016;-70
2021/12/19 01:48:23;;;;;;;1.65;0.40;;;31.70;94.20;;;;;;5094501;28;20020;-69
2021/12/19 01:50:52;;;;;;;1.13;0.45;;;31.70;94.10;;;;;;5095333;28;20020;-69
2021/12/19 01:53:20;;;;;;;1.83;0.38;;;31.70;93.80;;;;;;5094094;28;20154;-69
2021/12/19 01:55:54;;;;;;;2.45;0.57;;;31.80;91.80;;;;;;5094432;28;20024;-71
2021/12/19 01:58:25;;;;;;;1.33;0.43;;;31.90;90.30;;;;;;5094779;28;20438;-71
2021/12/19 02:00:56;;;;;;;2.35;0.40;;;32.20;92.10;;;;;;5094934;28;20027;-70
2021/12/19 02:03:24;;;;;;;4.97;0.40;;;32.50;90.50;;;;;;5092873;28;20035;-69
2021/12/19 02:05:55;;;;;;;0.45;0.40;;;32.80;91.20;;;;;;5094241;28;20024;-70
2021/12/19 02:08:23;;;;;;;1.30;0.40;;;32.90;87.30;;;;;;5087547;28;21345;-67
2021/12/19 02:10:51;;;;;;;0.68;0.20;;;33.30;90.40;;;;;;5087126;28;20646;-69
2021/12/19 02:13:20;;;;;;;2.47;0.65;;;33.40;88.70;;;;;;5085550;28;20066;-70
2021/12/19 02:15:48;;;;;;;2.45;0.20;;;33.10;84.50;;;;;;5074041;28;20100;-67
2021/12/19 02:18:24;;;;;;;0.43;0.20;;;32.90;83.70;;;;;;5078325;28;20374;-70
2021/12/19 02:20:57;;;;;;;0.90;0.30;;;33.10;85.00;;;;;;5079138;28;20029;-69
2021/12/19 02:23:27;;;;;;;3.13;0.50;;;33.40;85.60;;;;;;5080027;28;20063;-67
2021/12/19 02:25:56;;;;;;;1.13;0.30;;;33.40;83.50;;;;;;5079001;28;20081;-67
2021/12/19 02:28:24;;;;;;;0.70;0.30;;;33.30;82.80;;;;;;5074238;28;20029;-71
2021/12/19 02:30:53;;;;;;;0.88;0.40;;;33.20;83.10;;;;;;5084401;28;20020;-70
2021/12/19 02:33:24;;;;;;;1.05;0.30;;;33.10;80.20;;;;;;5085387;28;20362;-70
2021/12/19 02:36:02;;;;;;;1.08;0.10;;;33.10;78.00;;;;;;5083672;28;20047;-69
2021/12/19 02:49:44;;;;;;;4.20;0.30;;;33.10;79.30;;;;;;5082673;28;20097;-70
2021/12/19 02:52:17;;;;;;;0.77;0.40;;;33.50;78.60;;;;;;5083283;28;20051;-68
2021/12/19 02:54:45;;;;;;;0.80;0.35;;;34.00;79.70;;;;;;5084105;28;20031;-69
2021/12/19 02:57:13;;;;;;;0.75;0.43;;;34.00;78.70;;;;;;5082968;28;20020;-68
2021/12/19 02:59:41;;;;;;;1.67;0.50;;;33.80;78.50;;;;;;5084047;28;20032;-68
2021/12/19 03:02:09;;;;;;;0.95;0.40;;;33.60;78.80;;;;;;5083408;28;20027;-68
2021/12/19 03:04:36;;;;;;;0.43;0.28;;;33.60;78.90;;;;;;5083982;28;20512;-69
2021/12/19 03:07:04;;;;;;;1.00;0.40;;;33.70;78.40;;;;;;5083591;28;20108;-69
2021/12/19 03:20:19;;;;;;;1.52;0.20;;;33.80;77.30;;;;;;5083581;28;20040;-69
2021/12/19 03:22:50;;;;;;;1.60;0.35;;;33.70;75.80;;;;;;5083371;28;20504;-68
2021/12/19 03:25:17;;;;;;;2.00;0.30;;;33.60;77.30;;;;;;5083245;28;20158;-67
2021/12/19 03:27:45;;;;;;;2.55;0.40;;;33.70;79.30;;;;;;5083013;28;20028;-71
2021/12/19 03:30:13;;;;;;;1.73;0.47;;;33.80;78.00;;;;;;5083569;28;20067;-69
2021/12/19 03:32:41;;;;;;;1.23;0.40;;;34.00;81.00;;;;;;5075746;28;20020;-69
2021/12/19 03:35:09;;;;;;;2.35;0.30;;;34.00;77.80;;;;;;5075356;28;20046;-68
2021/12/19 03:37:37;;;;;;;0.95;0.40;;;34.00;79.10;;;;;;5076010;28;20055;-69
2021/12/19 03:40:11;;;;;;;0.50;0.22;;;34.00;76.90;;;;;;5076024;28;20040;-69
2021/12/19 03:42:50;;;;;;;1.05;0.40;;;33.80;76.00;;;;;;5076982;28;20044;-67
2021/12/19 03:45:22;;;;;;;0.30;0.30;;;33.70;75.60;;;;;;5074397;28;20527;-69
2021/12/19 03:47:50;;;;;;;1.33;0.40;;;33.80;76.80;;;;;;5073059;28;20024;-69
2021/12/19 03:50:21;;;;;;;2.72;0.30;;;33.80;76.80;;;;;;5085094;28;20032;-68
2021/12/19 03:52:51;;;;;;;4.03;0.73;;;33.70;74.30;;;;;;5092181;28;20024;-69
2021/12/19 03:55:21;;;;;;;2.90;0.47;;;33.30;74.90;;;;;;5075287;28;20020;-69
2021/12/19 03:57:49;;;;;;;2.35;0.70;;;32.80;75.50;;;;;;5072969;28;20099;-70
2021/12/19 04:00:23;;;;;;;1.23;0.40;;;32.50;77.10;;;;;;5072103;28;20068;-68
2021/12/19 04:02:54;;;;;;;1.13;0.40;;;32.10;78.90;;;;;;5070395;28;20036;-69
2021/12/19 04:05:22;;;;;;;1.23;0.40;;;31.70;76.70;;;;;;5072543;28;20021;-68
2021/12/19 04:07:49;;;;;;;3.38;0.55;;;31.30;79.80;;;;;;5072298;28;20458;-70
2021/12/19 04:10:17;;;;;;;1.00;0.52;;;31.00;78.70;;;;;;5072094;28;20025;-69
2021/12/19 04:12:45;;;;;;;2.63;0.47;;;30.60;77.80;;;;;;5071908;28;20042;-70
2021/12/19 04:15:13;;;;;;;7.00;1.08;;;30.30;89.00;;;;;;5071922;28;20059;-67
2021/12/19 04:17:40;;;;;;;7.35;1.48;;;29.30;96.40;;;;;;5071967;28;20218;-67
2021/12/19 04:20:11;;;;;;;7.28;1.25;;;28.00;99.90;;;;;;5072170;28;20115;-67
2021/12/19 04:22:39;;;;;;;3.22;0.75;;;26.80;99.90;;;;;;5072034;28;20091;-66
2021/12/19 04:25:07;;;;;;;5.20;0.93;;;26.20;99.90;;;;;;5072034;28;20020;-66
2021/12/19 04:27:36;;;;;;;2.58;0.70;;;25.80;99.90;;;;;;5072160;28;20100;-66
2021/12/19 04:30:09;;;;;;;3.03;1.10;;;25.60;99.90;;;;;;5071578;28;20044;-67
2021/12/19 04:32:42;;;;;;;1.75;0.70;;;25.40;99.90;;;;;;5071768;28;20370;-66
2021/12/19 04:35:10;;;;;;;1.60;0.50;;;25.20;99.90;;;;;;5071729;28;20574;-67
2021/12/19 04:38:27;;;;;;;0.43;0.30;;;25.30;99.90;;;;;;5071568;28;20045;-68
2021/12/19 05:15:28;;;;;;;1.63;0.40;;;26.70;99.90;;;;;;5072147;28;20028;-69
2021/12/19 05:18:05;;;;;;;0.85;0.40;;;26.70;99.90;;;;;;5071932;28;20009;-68
2021/12/19 05:20:34;;;;;;;1.75;0.50;;;26.70;99.90;;;;;;5074147;28;20026;-71
2021/12/19 05:23:19;;;;;;;5.55;0.60;;;26.80;99.90;;;;;;5080211;28;20020;-68
2021/12/19 05:25:46;;;;;;;3.33;0.63;;;27.00;99.90;;;;;;5078366;28;20024;-69
2021/12/19 05:28:14;;;;;;;2.25;0.50;;;27.20;99.90;;;;;;5078758;28;20042;-67
2021/12/19 05:30:42;;;;;;;1.75;0.50;;;27.40;99.90;;;;;;5078268;28;20407;-67
2021/12/19 05:33:09;;;;;;;4.78;0.30;;;27.40;99.90;;;;;;5078136;28;20131;-67
2021/12/19 05:46:59;;;;;;;1.60;0.60;;;26.90;99.90;;;;;;5081995;28;20027;-68
2021/12/19 05:49:27;;;;;;;1.30;0.30;;;26.80;99.90;;;;;;5078679;28;20024;-69
2021/12/19 05:51:55;;;;;;;0.85;0.40;;;26.70;99.80;;;;;;5075351;28;20013;-68
2021/12/19 05:54:23;;;;;;;1.40;0.50;;;26.70;99.90;;;;;;5075495;28;20422;-69
2021/12/19 05:56:51;;;;;;;4.32;0.45;;;26.70;99.90;;;;;;5075076;28;20024;-69
2021/12/19 05:59:19;;;;;;;11.00;0.50;;;26.70;99.90;;;;;;5074928;28;20358;-69
2021/12/19 06:01:47;;;;;;;1.23;0.50;;;26.70;99.90;;;;;;5075065;28;20024;-69
2021/12/19 06:04:14;;;;;;;2.53;0.40;;;26.60;99.90;;;;;;5075304;28;20070;-69
2021/12/19 06:06:42;;;;;;;2.75;0.55;;;26.60;99.90;;;;;;5074573;28;20027;-69
2021/12/19 06:09:10;;;;;;;1.73;0.40;;;26.50;99.90;;;;;;5077599;28;20023;-67
2021/12/19 06:11:37;;;;;;;0.73;0.30;;;26.50;99.90;;;;;;5074494;28;20054;-70
2021/12/19 06:14:05;;;;;;;3.50;0.63;;;26.40;99.90;;;;;;5074326;28;20024;-69
2021/12/19 06:16:33;;;;;;;1.48;0.30;;;26.40;99.90;;;;;;5077577;28;20016;-68
2021/12/19 06:19:01;;;;;;;1.08;0.30;;;26.30;99.90;;;;;;5084216;28;20033;-68
2021/12/19 06:21:28;;;;;;;1.67;0.57;;;26.30;99.90;;;;;;5084400;28;20044;-69
2021/12/19 06:23:56;;;;;;;4.20;0.52;;;26.20;99.90;;;;;;5084833;28;20020;-68
2021/12/19 06:26:24;;;;;;;1.25;0.30;;;26.00;99.60;;;;;;5085275;28;20066;-69
2021/12/19 06:28:51;;;;;;;1.40;0.50;;;25.90;99.90;;;;;;5084705;28;20020;-69
2021/12/19 06:31:19;;;;;;;1.45;0.38;;;25.80;99.70;;;;;;5081437;28;20031;-68
2021/12/19 06:33:47;;;;;;;1.20;0.40;;;25.90;99.80;;;;;;5073938;28;20016;-69
2021/12/19 06:36:15;;;;;;;0.77;0.43;;;25.90;99.00;;;;;;5074100;28;20477;-68
2021/12/19 06:38:43;;;;;;;1.10;0.63;;;26.00;98.80;;;;;;5074323;28;20041;-69
2021/12/19 06:41:10;;;;;;;0.95;0.43;;;25.90;97.80;;;;;;5093011;28;20095;-69
2021/12/19 06:43:38;;;;;;;2.22;0.90;;;25.90;98.50;;;;;;5094545;28;20024;-69
2021/12/19 06:46:06;;;;;;;2.10;0.90;;;25.90;97.80;;;;;;5085209;28;20017;-69
2021/12/19 06:48:34;;;;;;;0.32;0.30;;;26.00;98.60;;;;;;5074628;28;20027;-70
2021/12/19 06:51:01;;;;;;;1.90;0.43;;;25.90;97.40;;;;;;5087802;28;20027;-69
2021/12/19 06:53:29;;;;;;;0.77;0.20;;;25.90;98.00;;;;;;5091218;28;20016;-69
2021/12/19 06:55:58;;;;;;;0.82;0.40;;;25.90;98.40;;;;;;5073765;28;20033;-69
2021/12/19 06:58:26;;;;;;;0.90;0.28;;;25.90;98.70;;;;;;5073568;28;20484;-69
2021/12/19 07:00:54;;;;;;;0.45;0.30;;;25.90;98.50;;;;;;5065495;28;20027;-69
2021/12/19 07:03:24;;;;;;;1.58;0.47;;;25.90;98.00;;;;;;5093703;28;20464;-70
2021/12/19 07:05:52;;;;;;;1.23;0.40;;;25.90;97.70;;;;;;5075467;28;20038;-70
2021/12/19 07:08:21;;;;;;;1.13;0.40;;;25.80;98.20;;;;;;5093441;28;20035;-69
2021/12/19 07:10:49;;;;;;;0.38;0.32;;;25.80;98.00;;;;;;5089603;28;20016;-70
2021/12/19 07:13:20;;;;;;;2.63;0.40;;;25.80;98.10;;;;;;5092089;28;20028;-70
2021/12/19 07:15:52;;;;;;;1.52;0.50;;;25.80;98.00;;;;;;5091701;28;20062;-70
2021/12/19 07:18:20;;;;;;;0.77;0.40;;;25.80;97.40;;;;;;5091662;28;20477;-70
2021/12/19 07:20:48;;;;;;;3.08;0.60;;;25.80;98.20;;;;;;5091807;28;20028;-70
2021/12/19 07:23:20;;;;;;;0.75;0.25;;;25.80;98.60;;;;;;5091808;28;20020;-70
2021/12/19 07:25:48;;;;;;;0.68;0.40;;;25.80;98.10;;;;;;5091338;28;20066;-70
2021/12/19 07:28:16;;;;;;;0.43;0.20;;;25.80;98.30;;;;;;5091391;28;20036;-70
2021/12/19 07:30:44;;;;;;;1.88;0.30;;;25.80;98.90;;;;;;5091122;28;20022;-70
2021/12/19 07:33:12;;;;;;;1.48;0.30;;;25.70;98.80;;;;;;5091320;28;20467;-70
2021/12/19 07:35:44;;;;;;;1.70;0.43;;;25.70;98.60;;;;;;5091126;28;20103;-70
2021/12/19 07:38:18;;;;;;;1.17;0.50;;;25.70;99.20;;;;;;5090438;28;20048;-70
2021/12/19 07:40:47;;;;;;;2.42;0.40;;;25.60;99.90;;;;;;5089515;28;20415;-71
2021/12/19 07:43:15;;;;;;;2.80;0.45;;;24.80;99.90;;;;;;5091497;28;20065;-71
2021/12/19 07:45:44;;;;;;;4.47;0.50;;;23.90;99.90;;;;;;5091142;28;20016;-71
2021/12/19 07:48:12;;;;;;;3.45;0.52;;;23.30;99.90;;;;;;5091177;28;20016;-72
2021/12/19 07:50:40;;;;;;;1.75;0.45;;;22.90;99.90;;;;;;5085838;28;20021;-72
2021/12/19 07:53:08;;;;;;;1.38;0.60;;;22.60;99.90;;;;;;5076139;28;20113;-71
2021/12/19 07:55:36;;;;;;;0.60;0.40;;;22.40;99.90;;;;;;5083628;28;20430;-70
2021/12/19 07:58:04;;;;;;;0.95;0.30;;;22.30;99.90;;;;;;5082450;28;20025;-70
2021/12/19 08:00:32;;;;;;;0.95;0.45;;;22.30;99.90;;;;;;5081819;28;20074;-71
2021/12/19 08:03:00;;;;;;;0.68;0.38;;;22.40;99.90;;;;;;5081771;28;20404;-71
2021/12/19 08:05:27;;;;;;;2.33;0.63;;;22.40;99.90;;;;;;5080636;28;20111;-71
2021/12/19 08:08:00;;;;;;;2.63;0.50;;;22.40;99.90;;;;;;5081764;28;20030;-71
2021/12/19 08:13:04;;;;;;;2.05;0.50;;;22.50;99.90;;;;;;5080919;28;20021;-71
2021/12/19 08:15:32;;;;;;;1.65;0.40;;;22.50;99.90;;;;;;5081663;28;20024;-71
2021/12/19 08:18:00;;;;;;;2.45;0.60;;;22.60;99.90;;;;;;5081050;28;20524;-70
2021/12/19 08:20:28;;;;;;;0.82;0.60;;;22.70;99.90;;;;;;5080777;28;20097;-70
2021/12/19 08:22:56;;;;;;;5.18;0.70;;;22.70;99.90;;;;;;5081580;28;20027;-71
2021/12/19 08:25:25;;;;;;;3.28;0.90;;;22.70;99.90;;;;;;5081984;28;20024;-70
2021/12/19 08:27:54;;;;;;;2.70;0.50;;;22.80;99.90;;;;;;5079958;28;20051;-71
2021/12/19 08:30:23;;;;;;;6.43;0.70;;;22.70;99.90;;;;;;5080831;28;20507;-71
2021/12/19 08:32:52;;;;;;;1.30;0.45;;;22.70;99.90;;;;;;5076855;28;20028;-70
2021/12/19 08:35:19;;;;;;;2.33;0.60;;;22.60;99.90;;;;;;5072136;28;20020;-70
2021/12/19 08:37:47;;;;;;;1.92;0.30;;;22.60;99.90;;;;;;5071750;28;20151;-71
2021/12/19 08:40:15;;;;;;;0.65;0.22;;;22.50;99.90;;;;;;5074925;28;20078;-71
2021/12/19 08:42:43;;;;;;;2.47;0.70;;;22.50;99.90;;;;;;5072252;28;20025;-70
2021/12/19 08:45:12;;;;;;;1.85;0.47;;;22.30;99.90;;;;;;5072137;28;20024;-70
2021/12/19 08:47:40;;;;;;;0.80;0.40;;;22.30;99.90;;;;;;5071516;28;20036;-71
2021/12/19 08:50:09;;;;;;;2.55;0.60;;;22.30;99.90;;;;;;5071839;28;20502;-71
2021/12/19 08:52:37;;;;;;;0.60;0.52;;;22.10;99.90;;;;;;5072100;28;20066;-70
2021/12/19 08:55:06;;;;;;;1.35;0.40;;;22.10;99.90;;;;;;5072049;28;20024;-71
2021/12/19 08:57:34;;;;;;;1.92;0.50;;;22.00;99.90;;;;;;5072098;28;20016;-71
2021/12/19 09:00:13;;;;;;;2.42;0.60;;;22.00;99.90;;;;;;5071793;28;20041;-71
2021/12/19 09:02:44;;;;;;;1.67;0.55;;;21.90;99.90;;;;;;5053392;28;20055;-71
2021/12/19 09:05:12;;;;;;;1.17;0.50;;;21.90;99.90;;;;;;5071872;28;20942;-70
2021/12/19 09:07:40;;;;;;;1.17;0.57;;;21.90;99.90;;;;;;5075750;28;20021;-71
2021/12/19 09:10:08;;;;;;;1.00;0.50;;;21.80;99.90;;;;;;5086556;28;20107;-70
2021/12/19 09:12:37;;;;;;;0.40;0.25;;;21.90;99.90;;;;;;5086424;28;20024;-71
2021/12/19 09:15:06;;;;;;;3.63;0.30;;;21.90;99.90;;;;;;5086945;28;20012;-71
2021/12/19 09:17:34;;;;;;;0.60;0.38;;;22.00;99.90;;;;;;5090845;28;20016;-70
2021/12/19 09:20:02;;;;;;;1.90;0.70;;;22.00;99.90;;;;;;5090046;28;20041;-71
2021/12/19 09:22:30;;;;;;;3.67;0.50;;;22.00;99.90;;;;;;5088962;28;20028;-71
2021/12/19 09:24:58;;;;;;;1.95;0.52;;;22.00;99.90;;;;;;5090662;28;20044;-70
2021/12/19 09:27:26;;;;;;;1.52;0.57;;;21.90;99.90;;;;;;5091272;28;20019;-71
2021/12/19 09:29:54;;;;;;;2.38;0.40;;;21.90;99.90;;;;;;5089406;28;20016;-71
2021/12/19 09:32:22;;;;;;;0.93;0.20;;;21.90;99.90;;;;;;5071827;28;20016;-70
2021/12/19 09:34:49;;;;;;;2.00;0.30;;;21.80;99.90;;;;;;5079511;28;20469;-70
2021/12/19 09:37:17;;;;;;;2.72;0.65;;;21.70;99.90;;;;;;5075579;28;20501;-70
2021/12/19 09:39:46;;;;;;;1.60;0.45;;;21.70;99.90;;;;;;5075670;28;20029;-71
2021/12/19 09:42:15;;;;;;;0.90;0.25;;;21.80;99.90;;;;;;5075687;28;20027;-70
2021/12/19 09:44:43;;;;;;;0.82;0.50;;;21.80;99.90;;;;;;5079861;28;20024;-71
2021/12/19 09:47:11;;;;;;;2.28;0.45;;;21.70;99.90;;;;;;5058341;28;20453;-71
2021/12/19 09:49:39;;;;;;;0.57;0.47;;;21.70;99.90;;;;;;5080827;28;20035;-71
2021/12/19 09:52:08;;;;;;;4.05;0.82;;;21.70;99.90;;;;;;5084958;28;20116;-71
2021/12/19 09:54:39;;;;;;;1.13;0.40;;;21.70;99.90;;;;;;5084616;28;20024;-71
2021/12/19 09:57:07;;;;;;;1.10;0.40;;;21.70;99.90;;;;;;5085584;28;20032;-71
2021/12/19 09:59:35;;;;;;;1.23;0.32;;;21.70;99.90;;;;;;5084441;28;20028;-71
2021/12/19 10:02:03;;;;;;;0.93;0.55;;;21.70;99.90;;;;;;5074615;28;20469;-71
2021/12/19 10:04:33;;;;;;;4.63;0.93;;;21.70;99.90;;;;;;5074389;28;20032;-70
2021/12/19 10:07:20;;;;;;;0.68;0.47;;;21.60;99.90;;;;;;5074420;28;20423;-71
2021/12/19 10:10:24;;;;;;;0.98;0.47;;;21.60;99.90;;;;;;5074611;28;20106;-71
2021/12/19 10:12:58;;;;;;;1.30;0.38;;;21.60;99.90;;;;;;5074522;28;20496;-71
2021/12/19 10:15:33;;;;;;;0.85;0.50;;;21.60;99.90;;;;;;5074599;28;20527;-71
2021/12/19 10:18:15;;;;;;;1.63;0.75;;;21.60;99.90;;;;;;5074384;28;20051;-71
2021/12/19 10:20:57;;;;;;;2.10;0.47;;;21.60;99.90;;;;;;5074380;28;20032;-71
2021/12/19 10:23:28;;;;;;;3.35;0.52;;;21.50;99.90;;;;;;5074406;28;20012;-71
2021/12/19 10:26:15;;;;;;;0.70;0.50;;;21.50;99.90;;;;;;5076104;28;20025;-71
2021/12/19 10:28:55;;;;;;;1.23;0.50;;;21.50;99.90;;;;;;5073700;28;20024;-71
2021/12/19 10:31:30;;;;;;;2.05;0.30;;;21.50;99.90;;;;;;5074217;28;20062;-70
2021/12/19 10:33:58;;;;;;;1.05;0.60;;;21.40;99.90;;;;;;5056353;28;20032;-71
2021/12/19 10:36:29;;;;;;;1.98;0.50;;;21.40;99.90;;;;;;5073988;28;20451;-71
2021/12/19 10:39:00;;;;;;;4.43;0.70;;;21.30;99.90;;;;;;5079270;28;20489;-71
2021/12/19 10:41:35;;;;;;;1.88;0.63;;;21.30;99.90;;;;;;5078545;28;20066;-71
2021/12/19 10:44:10;;;;;;;1.25;0.30;;;21.20;99.90;;;;;;5076888;28;20024;-70
2021/12/19 10:46:42;;;;;;;3.08;0.50;;;21.10;99.90;;;;;;5076992;28;20035;-71
2021/12/19 10:49:32;;;;;;;0.90;0.28;;;21.10;99.90;;;;;;5078009;28;20021;-70
2021/12/19 10:52:01;;;;;;;4.47;0.32;;;21.20;99.90;;;;;;5077535;28;20024;-71
2021/12/19 10:54:30;;;;;;;7.55;0.70;;;21.10;99.90;;;;;;5077362;28;20009;-70
2021/12/19 10:57:12;;;;;;;1.63;0.30;;;21.10;99.90;;;;;;5077319;28;20154;-71
2021/12/19 10:59:44;;;;;;;3.75;0.50;;;21.10;99.90;;;;;;5076846;28;20028;-71
2021/12/19 11:02:14;;;;;;;1.40;0.47;;;21.10;99.90;;;;;;5077217;28;20020;-71
2021/12/19 11:04:41;;;;;;;1.95;0.40;;;21.10;99.90;;;;;;5059803;28;20025;-71
2021/12/19 11:07:09;;;;;;;3.63;0.52;;;21.10;99.90;;;;;;5077117;28;20020;-71
2021/12/19 11:09:37;;;;;;;0.30;0.20;;;21.10;99.90;;;;;;5077308;28;20020;-71
2021/12/19 11:12:10;;;;;;;0.47;0.30;;;21.10;99.90;;;;;;5078802;28;20020;-70
2021/12/19 11:14:45;;;;;;;1.08;0.40;;;21.10;99.90;;;;;;5077163;28;20021;-71
2021/12/19 11:17:16;;;;;;;1.38;0.40;;;21.10;99.90;;;;;;5077797;28;20367;-71
2021/12/19 11:19:45;;;;;;;1.85;0.50;;;21.00;99.90;;;;;;5076738;28;20036;-71
2021/12/19 11:22:15;;;;;;;0.95;0.50;;;21.10;99.90;;;;;;5076706;28;20377;-71
2021/12/19 11:24:43;;;;;;;2.35;0.60;;;21.10;99.90;;;;;;5076510;28;20019;-71
2021/12/19 11:27:11;;;;;;;1.05;0.50;;;21.10;99.90;;;;;;5060373;28;20024;-71
2021/12/19 11:29:39;;;;;;;1.83;0.50;;;21.10;99.90;;;;;;5076113;28;20731;-71
2021/12/19 11:32:08;;;;;;;1.63;0.30;;;21.00;99.90;;;;;;5077430;28;20021;-70
2021/12/19 11:35:03;;;;;;;1.50;0.30;;;21.00;99.90;;;;;;5075623;28;20469;-70
2021/12/19 11:37:39;;;;;;;1.95;0.60;;;21.10;99.90;;;;;;5077283;28;20545;-71
2021/12/19 11:40:09;;;;;;;0.80;0.30;;;21.00;99.90;;;;;;5075285;28;20401;-70
2021/12/19 11:42:39;;;;;;;1.15;0.45;;;21.00;99.90;;;;;;5076354;28;20008;-70
2021/12/19 11:45:30;;;;;;;0.75;0.30;;;21.00;99.90;;;;;;5077517;28;20048;-70
2021/12/19 11:48:07;;;;;;;1.42;0.50;;;21.00;99.90;;;;;;5073363;28;20025;-71
2021/12/19 11:50:48;;;;;;;4.53;0.30;;;20.90;99.90;;;;;;5073342;28;20024;-70
2021/12/19 11:53:18;;;;;;;0.95;0.28;;;20.90;99.90;;;;;;5059682;28;20397;-71
2021/12/19 11:55:55;;;;;;;1.08;0.40;;;20.90;99.90;;;;;;5078578;28;20074;-71
2021/12/19 11:58:24;;;;;;;4.72;0.77;;;20.80;99.90;;;;;;5072313;28;20017;-71
2021/12/19 12:01:06;;;;;;;2.38;0.35;;;20.80;99.90;;;;;;5072306;28;20017;-70
2021/12/19 12:04:04;;;;;;;1.55;0.65;;;20.80;99.90;;;;;;5071918;28;20021;-70
2021/12/19 12:06:35;;;;;;;3.03;0.43;;;20.80;99.90;;;;;;5072392;28;20426;-71
2021/12/19 12:09:23;;;;;;;2.38;0.40;;;20.80;99.90;;;;;;5085402;28;20476;-70
2021/12/19 12:12:19;;;;;;;4.00;0.45;;;20.70;99.90;;;;;;5097152;28;20389;-70
2021/12/19 12:15:02;;;;;;;0.70;0.35;;;20.60;99.90;;;;;;5089558;28;20024;-70
2021/12/19 12:17:39;;;;;;;1.95;0.40;;;20.50;99.90;;;;;;5073505;28;20476;-70
2021/12/19 12:20:19;;;;;;;1.50;0.40;;;20.50;99.90;;;;;;5073511;28;20075;-70
2021/12/19 12:22:56;;;;;;;0.93;0.30;;;20.50;99.90;;;;;;5082213;28;20024;-70
2021/12/19 12:25:40;;;;;;;1.13;0.47;;;20.50;99.90;;;;;;5093295;28;20039;-71
2021/12/19 12:28:09;;;;;;;1.65;0.50;;;20.50;99.90;;;;;;5093654;28;20024;-71
2021/12/19 12:30:44;;;;;;;0.40;0.40;;;20.50;99.90;;;;;;5093748;28;20023;-72
2021/12/19 12:33:16;;;;;;;2.03;0.30;;;20.50;99.90;;;;;;5093858;28;20020;-71
2021/12/19 12:35:48;;;;;;;2.00;0.52;;;20.40;99.90;;;;;;5093786;28;20036;-71
2021/12/19 12:38:16;;;;;;;0.63;0.30;;;20.40;99.90;;;;;;5093175;28;20056;-71
2021/12/19 12:43:27;;;;;;;0.93;0.47;;;20.40;99.90;;;;;;5093630;28;20016;-72
2021/12/19 12:46:03;;;;;;;1.70;0.40;;;20.40;99.90;;;;;;5093537;28;20028;-72
2021/12/19 12:48:40;;;;;;;1.38;0.40;;;20.40;99.90;;;;;;5094057;28;20024;-71
2021/12/19 12:51:13;;;;;;;0.55;0.30;;;20.30;99.90;;;;;;5093250;28;20032;-72
2021/12/19 12:53:47;;;;;;;2.03;0.68;;;20.30;99.90;;;;;;5093545;28;20078;-72
2021/12/19 12:56:19;;;;;;;3.70;0.40;;;20.30;99.90;;;;;;5093318;28;20067;-72
2021/12/19 12:58:53;;;;;;;0.80;0.40;;;20.30;99.90;;;;;;5093451;28;20028;-71
2021/12/19 13:01:27;;;;;;;1.95;0.80;;;20.30;99.90;;;;;;5075406;28;20028;-72
2021/12/19 13:04:08;;;;;;;0.65;0.32;;;20.20;99.90;;;;;;5093533;28;20027;-71
2021/12/19 13:07:05;;;;;;;0.70;0.40;;;20.20;99.90;;;;;;5093422;28;20095;-70
2021/12/19 13:10:00;;;;;;;1.27;0.55;;;20.20;99.90;;;;;;5093606;28;20024;-71
2021/12/19 13:12:34;;;;;;;0.50;0.30;;;20.10;99.90;;;;;;5093441;28;20031;-72
2021/12/19 13:15:04;;;;;;;2.28;0.60;;;20.20;99.90;;;;;;5093722;28;20028;-70
2021/12/19 13:17:37;;;;;;;1.27;0.40;;;20.10;99.90;;;;;;5093135;28;20020;-71
2021/12/19 13:20:11;;;;;;;0.40;0.35;;;20.20;99.90;;;;;;5093069;28;20077;-70
2021/12/19 13:22:57;;;;;;;0.52;0.40;;;20.20;99.90;;;;;;5093195;28;20016;-72
2021/12/19 13:25:44;;;;;;;0.82;0.40;;;20.20;99.90;;;;;;5093100;28;20032;-70
2021/12/19 13:28:20;;;;;;;0.65;0.40;;;20.20;99.90;;;;;;5093111;28;20035;-71
2021/12/19 13:30:50;;;;;;;0.98;0.75;;;20.20;99.90;;;;;;5093178;28;20021;-70
2021/12/19 13:33:21;;;;;;;2.67;0.60;;;20.20;99.90;;;;;;5093019;28;20099;-70
2021/12/19 13:35:59;;;;;;;1.85;0.43;;;20.20;99.90;;;;;;5093025;28;20032;-72
2021/12/19 13:38:31;;;;;;;1.42;0.50;;;20.30;99.90;;;;;;5092556;28;20048;-72
2021/12/19 13:41:05;;;;;;;2.40;0.63;;;20.30;99.90;;;;;;5093020;28;20393;-72
2021/12/19 13:43:35;;;;;;;0.98;0.57;;;20.30;99.90;;;;;;5093079;28;20054;-70
2021/12/19 13:46:09;;;;;;;1.40;0.50;;;20.30;99.90;;;;;;5093527;28;20052;-71
2021/12/19 13:48:49;;;;;;;2.83;0.70;;;20.40;99.90;;;;;;5092957;28;20078;-70
2021/12/19 13:51:25;;;;;;;2.97;0.52;;;20.40;99.90;;;;;;5093398;28;20017;-71
2021/12/19 13:53:58;;;;;;;1.98;0.68;;;20.40;99.90;;;;;;5093232;28;20460;-71
2021/12/19 13:56:29;;;;;;;0.70;0.60;;;20.30;99.90;;;;;;5092861;28;20032;-70
2021/12/19 13:59:03;;;;;;;1.95;0.88;;;20.30;99.90;;;;;;5093119;28;20377;-71
2021/12/19 14:01:37;;;;;;;3.30;0.30;;;20.30;99.90;;;;;;5092826;28;20495;-71
2021/12/19 14:04:20;;;;;;;1.98;0.75;;;20.30;99.90;;;;;;5096612;28;20381;-71
2021/12/19 14:06:50;;;;;;;6.13;0.50;;;20.30;99.90;;;;;;5095776;28;20020;-71
2021/12/19 14:09:22;;;;;;;0.17;0.17;;;20.30;99.90;;;;;;5095840;28;20480;-71
2021/12/19 14:11:59;;;;;;;1.77;0.40;;;20.30;99.90;;;;;;5095418;28;20560;-70
2021/12/19 14:14:32;;;;;;;5.72;0.57;;;20.30;99.90;;;;;;5095934;28;20028;-71
2021/12/19 14:17:29;;;;;;;2.08;0.68;;;20.30;99.90;;;;;;5096182;28;20024;-71
2021/12/19 14:20:01;;;;;;;1.48;0.55;;;20.30;99.90;;;;;;5095265;28;20040;-70
2021/12/19 14:22:28;;;;;;;2.75;0.80;;;20.30;99.90;;;;;;5096189;28;20463;-71
2021/12/19 14:24:58;;;;;;;4.78;0.30;;;20.30;99.90;;;;;;5096061;28;20032;-71
2021/12/19 14:27:30;;;;;;;1.17;0.60;;;20.20;99.90;;;;;;5096126;28;20465;-71
2021/12/19 14:30:00;;;;;;;1.15;0.47;;;20.20;99.90;;;;;;5095738;28;20116;-71